Time;durP1;ratioP1;P1;durP2;ratioP2;P2;SDS_P1;SDS_P2;PMS_P1;PMS_P2;Temp;Humidity;BMP_temperature;BMP_pressure;BME280_temperature;BME280_humidity;BME280_pressure;Samples;Min_cycle;Max_cycle;Signal;HPM_P1;HPM_P2
2022/08/31 00:05:45;;;;;;;7.15;4.00;;;;;;;21.30;71.92;99820.81;4262326;33;34235;-78
2022/08/31 00:08:31;;;;;;;7.35;4.22;;;;;;;21.41;70.79;99823.78;4271622;33;34556;-79
2022/08/31 00:11:26;;;;;;;9.30;4.25;;;;;;;21.24;72.33;99820.34;4260437;33;34617;-79
2022/08/31 00:14:13;;;;;;;7.72;4.00;;;;;;;21.24;72.84;99825.91;4271082;33;34927;-78
2022/08/31 00:16:59;;;;;;;8.13;3.80;;;;;;;21.36;71.83;99822.09;4260242;33;34341;-78
2022/08/31 00:19:46;;;;;;;8.82;3.65;;;;;;;21.45;71.42;99830.19;4250095;33;34635;-78
2022/08/31 00:22:32;;;;;;;8.75;4.10;;;;;;;22.09;68.14;99816.13;4271081;33;36188;-78
2022/08/31 00:25:19;;;;;;;6.72;4.22;;;;;;;20.83;73.67;99825.78;4260170;33;34055;-78
2022/08/31 00:28:06;;;;;;;10.60;4.87;;;;;;;20.35;77.92;99827.34;4260368;33;34245;-79
2022/08/31 00:30:52;;;;;;;9.23;4.40;;;;;;;20.45;77.42;99829.50;4271192;33;33429;-78
2022/08/31 00:33:39;;;;;;;7.85;3.85;;;;;;;20.82;75.57;99828.91;4270887;33;34560;-79
2022/08/31 00:36:26;;;;;;;6.68;3.87;;;;;;;20.75;75.37;99826.84;4260100;33;34283;-78
2022/08/31 00:39:13;;;;;;;7.70;3.87;;;;;;;21.32;71.60;99822.03;4260027;33;34099;-78
2022/08/31 00:41:59;;;;;;;7.50;4.03;;;;;;;21.29;71.32;99833.16;4259817;33;34545;-79
2022/08/31 00:44:46;;;;;;;8.32;3.87;;;;;;;20.76;73.81;99833.22;4260017;33;34999;-78
2022/08/31 00:47:32;;;;;;;6.53;3.97;;;;;;;21.32;70.78;99832.41;4270668;33;34718;-78
2022/08/31 00:50:20;;;;;;;6.30;4.20;;;;;;;21.42;69.80;99830.94;4270186;33;34797;-78
2022/08/31 00:53:06;;;;;;;9.80;3.50;;;;;;;21.54;69.63;99836.25;4270814;33;34612;-78
2022/08/31 00:55:53;;;;;;;7.10;3.65;;;;;;;21.49;70.23;99837.41;4270589;33;34609;-78
2022/08/31 00:58:40;;;;;;;7.22;3.65;;;;;;;21.25;70.76;99838.66;4270624;33;34643;-78
2022/08/31 01:01:29;;;;;;;5.90;3.85;;;;;;;21.36;70.82;99836.00;4270883;33;33759;-78
2022/08/31 01:04:16;;;;;;;10.35;4.50;;;;;;;21.02;73.01;99837.97;4270009;33;35569;-78
2022/08/31 01:07:03;;;;;;;7.93;3.72;;;;;;;20.93;73.99;99843.81;4270650;33;34997;-78
2022/08/31 01:09:50;;;;;;;8.70;4.22;;;;;;;21.30;73.07;99840.31;4259700;33;35813;-78
2022/08/31 01:12:43;;;;;;;8.05;3.80;;;;;;;21.03;74.63;99843.16;4270767;33;35368;-78
2022/08/31 01:15:31;;;;;;;9.15;4.10;;;;;;;21.11;73.67;99842.06;4259804;33;34563;-78
2022/08/31 01:18:18;;;;;;;8.32;3.83;;;;;;;21.29;73.17;99841.50;4270384;33;35998;-78
2022/08/31 01:21:35;;;;;;;8.32;4.37;;;;;;;20.98;73.97;99837.12;4259584;33;34556;-78
2022/08/31 01:24:24;;;;;;;8.80;4.10;;;;;;;21.13;73.32;99847.25;4270355;33;34286;-78
2022/08/31 01:27:14;;;;;;;7.05;4.47;;;;;;;21.12;73.52;99843.69;4259769;33;34641;-78
2022/08/31 01:30:02;;;;;;;9.57;4.40;;;;;;;21.04;74.09;99843.97;4259335;33;35044;-79
2022/08/31 01:32:48;;;;;;;5.03;3.87;;;;;;;20.21;79.29;99842.66;4259413;33;34119;-79
2022/08/31 01:35:36;;;;;;;6.10;3.92;;;;;;;20.81;77.14;99855.16;4259663;33;33743;-78
2022/08/31 01:38:22;;;;;;;7.50;4.00;;;;;;;20.76;76.84;99852.69;4249173;33;34615;-79
2022/08/31 01:41:09;;;;;;;7.15;4.30;;;;;;;20.12;80.56;99850.44;4259333;33;34614;-78
2022/08/31 01:43:58;;;;;;;7.93;4.45;;;;;;;20.32;79.78;99842.84;4270255;33;34700;-79
2022/08/31 01:46:47;;;;;;;8.70;4.15;;;;;;;20.45;79.02;99847.00;4269893;33;33735;-79
2022/08/31 01:49:33;;;;;;;6.82;4.32;;;;;;;20.67;77.68;99855.75;4270147;33;34292;-78
2022/08/31 01:52:19;;;;;;;10.32;4.75;;;;;;;21.14;74.70;99850.84;4270151;33;35939;-79
2022/08/31 01:55:09;;;;;;;8.43;4.30;;;;;;;20.37;78.81;99841.69;4269891;33;34653;-79
2022/08/31 01:57:56;;;;;;;6.47;4.00;;;;;;;21.01;75.41;99839.94;4269954;33;34134;-78
2022/08/31 02:00:45;;;;;;;8.93;4.53;;;;;;;21.03;75.34;99848.72;4271147;33;35637;-79
2022/08/31 02:03:32;;;;;;;7.55;4.47;;;;;;;20.66;76.73;99846.59;4271765;33;35060;-79
2022/08/31 02:06:18;;;;;;;6.37;4.00;;;;;;;20.61;77.53;99848.91;4271854;33;35141;-79
2022/08/31 02:09:06;;;;;;;7.80;5.15;;;;;;;20.79;76.87;99849.16;4271891;33;35335;-79
2022/08/31 02:11:53;;;;;;;8.32;4.07;;;;;;;19.82;82.19;99841.94;4271791;33;35316;-79
2022/08/31 02:14:40;;;;;;;13.18;4.85;;;;;;;20.13;80.88;99840.91;4271906;33;35079;-78
2022/08/31 02:17:27;;;;;;;7.30;4.55;;;;;;;20.27;80.47;99845.12;4260998;33;34288;-78
2022/08/31 02:20:15;;;;;;;6.72;4.15;;;;;;;20.83;76.90;99844.44;4271763;33;33670;-79
2022/08/31 02:23:02;;;;;;;6.90;4.72;;;;;;;20.33;79.51;99838.06;4260718;33;35499;-78
2022/08/31 02:25:48;;;;;;;9.68;4.85;;;;;;;20.39;78.87;99831.00;4271617;33;34553;-78
2022/08/31 02:28:36;;;;;;;7.55;4.55;;;;;;;20.27;79.31;99834.00;4271631;33;34727;-78
2022/08/31 02:31:23;;;;;;;8.32;4.50;;;;;;;20.19;79.82;99828.28;4271742;33;35055;-79
2022/08/31 02:34:09;;;;;;;9.80;4.75;;;;;;;20.28;79.40;99824.47;4271810;33;35570;-78
2022/08/31 02:36:56;;;;;;;8.35;4.68;;;;;;;20.62;77.15;99829.03;4271883;33;33885;-78
2022/08/31 02:39:42;;;;;;;8.07;4.32;;;;;;;20.21;78.75;99825.94;4271611;33;34740;-78
2022/08/31 02:42:29;;;;;;;10.57;4.97;;;;;;;19.87;80.87;99836.06;4271543;33;34137;-78
2022/08/31 02:45:36;;;;;;;8.50;5.00;;;;;;;18.13;91.68;99842.06;4271549;33;35620;-78
2022/08/31 02:48:23;;;;;;;9.25;5.00;;;;;;;19.00;89.11;99841.00;4260841;33;35563;-78
2022/08/31 02:51:10;;;;;;;6.28;4.43;;;;;;;19.41;87.19;99833.16;4271676;33;34593;-78
2022/08/31 02:53:56;;;;;;;9.75;4.82;;;;;;;19.91;84.12;99827.78;4271616;33;34323;-78
2022/08/31 02:56:43;;;;;;;7.07;4.80;;;;;;;19.84;83.75;99830.47;4250580;33;34624;-78
2022/08/31 02:59:29;;;;;;;10.77;5.28;;;;;;;19.29;86.79;99824.97;4260669;33;34993;-79
2022/08/31 03:02:16;;;;;;;9.38;4.78;;;;;;;19.44;86.58;99828.81;4271621;33;34346;-79
2022/08/31 03:05:07;;;;;;;6.75;4.50;;;;;;;19.61;86.33;99831.19;4270819;33;35064;-79
2022/08/31 03:07:53;;;;;;;8.52;4.80;;;;;;;19.95;83.43;99829.47;4271291;33;35125;-78
2022/08/31 03:10:40;;;;;;;8.30;4.22;;;;;;;20.21;81.28;99834.28;4261157;33;34978;-79
2022/08/31 03:13:28;;;;;;;8.50;4.03;;;;;;;20.53;78.62;99831.28;4271763;33;35129;-77
2022/08/31 03:16:15;;;;;;;7.05;4.10;;;;;;;20.58;78.27;99833.75;4270846;33;34250;-77
2022/08/31 03:19:01;;;;;;;8.07;4.30;;;;;;;19.98;81.33;99833.50;4260685;33;34549;-78
2022/08/31 03:21:48;;;;;;;8.85;4.07;;;;;;;20.39;79.43;99836.56;4271450;33;36060;-78
2022/08/31 03:24:42;;;;;;;8.48;4.47;;;;;;;20.33;79.28;99835.28;4270980;33;34602;-78
2022/08/31 03:27:29;;;;;;;8.20;4.80;;;;;;;19.84;81.95;99830.47;4271476;33;34142;-78
2022/08/31 03:30:19;;;;;;;7.80;4.60;;;;;;;20.10;80.46;99827.75;4260425;33;34156;-79
2022/08/31 03:33:06;;;;;;;9.57;4.78;;;;;;;19.95;81.74;99829.47;4271387;33;35073;-78
2022/08/31 03:35:52;;;;;;;8.00;4.90;;;;;;;19.74;82.78;99829.88;4271342;33;34718;-78
2022/08/31 03:38:38;;;;;;;8.90;4.65;;;;;;;19.79;81.44;99837.09;4271452;33;34602;-78
2022/08/31 03:41:25;;;;;;;6.12;4.30;;;;;;;20.08;80.01;99844.00;4270778;33;34715;-76
2022/08/31 03:44:12;;;;;;;7.87;4.47;;;;;;;20.16;79.00;99839.38;4271271;33;35958;-76
2022/08/31 03:47:00;;;;;;;7.28;4.18;;;;;;;19.76;81.21;99835.06;4270621;33;35660;-77
2022/08/31 03:49:46;;;;;;;7.30;4.40;;;;;;;19.43;82.96;99833.59;4271477;33;34099;-76
2022/08/31 03:52:33;;;;;;;8.30;4.62;;;;;;;19.74;80.46;99829.06;4268126;33;34701;-77
2022/08/31 03:55:19;;;;;;;6.68;4.12;;;;;;;18.40;90.15;99835.63;4271185;33;36166;-77
2022/08/31 03:58:06;;;;;;;7.30;4.43;;;;;;;19.54;82.83;99831.03;4269391;33;35808;-77
2022/08/31 04:00:53;;;;;;;8.02;3.90;;;;;;;19.89;80.24;99824.56;4260047;33;34372;-77
2022/08/31 04:03:40;;;;;;;7.43;4.15;;;;;;;19.90;79.86;99827.00;4258127;33;34876;-76
2022/08/31 04:06:28;;;;;;;7.28;4.30;;;;;;;19.95;79.34;99829.47;4267161;33;33328;-77
2022/08/31 04:09:38;;;;;;;6.82;4.22;;;;;;;19.56;81.82;99834.25;4270744;33;34717;-77
2022/08/31 04:12:26;;;;;;;8.68;4.32;;;;;;;19.59;81.66;99841.84;4259382;33;34037;-77
2022/08/31 04:15:14;;;;;;;7.53;4.43;;;;;;;19.73;80.51;99838.59;4270822;33;34626;-77
2022/08/31 04:18:03;;;;;;;7.37;4.35;;;;;;;19.24;83.30;99837.19;4250579;33;34917;-77
2022/08/31 04:20:53;;;;;;;8.07;4.50;;;;;;;19.29;84.67;99844.41;4260163;33;33561;-77
2022/08/31 04:23:40;;;;;;;9.25;4.10;;;;;;;19.08;84.58;99839.19;4270731;33;34334;-78
2022/08/31 04:26:32;;;;;;;6.85;4.57;;;;;;;19.20;83.62;99844.62;4258166;33;34359;-76
2022/08/31 04:29:23;;;;;;;9.73;4.03;;;;;;;19.13;84.55;99841.69;4256947;33;36000;-76
2022/08/31 04:32:13;;;;;;;9.77;4.32;;;;;;;19.66;80.17;99842.00;4258939;33;35030;-76
2022/08/31 04:35:00;;;;;;;8.00;4.53;;;;;;;19.47;80.96;99836.47;4258911;33;35912;-76
2022/08/31 04:37:47;;;;;;;8.73;4.80;;;;;;;19.52;80.70;99838.91;4271106;33;34283;-76
2022/08/31 04:40:36;;;;;;;7.50;4.37;;;;;;;19.65;80.35;99832.06;4270502;33;34590;-76
2022/08/31 04:43:24;;;;;;;6.93;4.43;;;;;;;19.15;83.13;99836.56;4270696;33;35639;-76
2022/08/31 04:46:10;;;;;;;6.65;4.32;;;;;;;19.71;79.99;99838.12;4269701;33;33856;-76
2022/08/31 04:48:57;;;;;;;9.20;4.70;;;;;;;19.35;81.59;99837.38;4270989;33;34545;-76
2022/08/31 04:51:44;;;;;;;6.85;4.25;;;;;;;18.40;88.00;99841.16;4259959;33;34695;-76
2022/08/31 04:54:31;;;;;;;7.37;4.62;;;;;;;19.08;84.74;99848.34;4259561;33;34862;-76
2022/08/31 04:57:17;;;;;;;8.82;4.60;;;;;;;18.35;89.89;99848.97;4270840;33;35082;-76
2022/08/31 05:00:04;;;;;;;8.95;4.72;;;;;;;19.00;87.01;99851.31;4270921;33;35099;-76
2022/08/31 05:02:54;;;;;;;6.53;4.37;;;;;;;19.20;85.30;99843.81;4270101;33;34900;-76
2022/08/31 05:05:41;;;;;;;7.72;4.50;;;;;;;19.68;81.99;99845.22;4259747;33;35531;-76
2022/08/31 05:08:27;;;;;;;7.28;4.43;;;;;;;19.72;82.40;99848.06;4270737;33;33830;-76
2022/08/31 05:11:16;;;;;;;7.72;4.32;;;;;;;20.02;79.44;99839.91;4270688;33;34410;-76
2022/08/31 05:14:09;;;;;;;8.02;4.37;;;;;;;19.87;80.80;99843.63;4250269;33;34620;-76
2022/08/31 05:16:55;;;;;;;8.32;4.50;;;;;;;19.64;81.75;99838.78;4259824;33;35571;-76
2022/08/31 05:19:42;;;;;;;10.18;4.37;;;;;;;20.01;80.03;99846.66;4270575;33;34204;-76
2022/08/31 05:22:30;;;;;;;7.68;4.90;;;;;;;19.92;81.26;99846.06;4259608;33;34689;-76
2022/08/31 05:25:16;;;;;;;8.27;4.43;;;;;;;19.93;81.06;99848.50;4259417;33;34971;-76
2022/08/31 05:28:03;;;;;;;11.30;4.87;;;;;;;20.22;78.84;99849.00;4270449;33;34596;-76
2022/08/31 05:30:50;;;;;;;8.77;4.28;;;;;;;20.04;80.71;99850.69;4270406;33;35160;-76
2022/08/31 05:33:38;;;;;;;6.70;3.97;;;;;;;20.41;78.00;99850.94;4270573;33;34772;-76
2022/08/31 05:36:25;;;;;;;8.30;4.22;;;;;;;20.47;78.36;99860.56;4260798;33;34562;-76
2022/08/31 05:39:12;;;;;;;7.80;4.60;;;;;;;20.46;79.05;99858.94;4272070;33;35568;-76
2022/08/31 05:41:59;;;;;;;8.75;4.10;;;;;;;20.77;77.35;99862.66;4271731;33;33971;-76
2022/08/31 05:44:45;;;;;;;6.32;3.50;;;;;;;20.94;74.78;99862.09;4272045;33;34610;-76
2022/08/31 05:47:31;;;;;;;6.57;3.28;;;;;;;20.82;76.06;99856.75;4271434;33;35916;-76
2022/08/31 05:50:18;;;;;;;10.20;3.78;;;;;;;21.13;72.16;99852.84;4272259;33;35372;-76
2022/08/31 05:53:05;;;;;;;8.25;3.75;;;;;;;21.16;73.82;99854.88;4271849;33;35294;-76
2022/08/31 05:56:05;;;;;;;6.05;3.22;;;;;;;20.89;74.94;99854.91;4261194;33;34673;-76
2022/08/31 05:58:52;;;;;;;9.05;4.47;;;;;;;21.55;72.34;99852.62;4272172;33;34904;-76
2022/08/31 06:01:40;;;;;;;8.88;3.55;;;;;;;21.66;71.00;99855.53;4271948;33;34304;-76
2022/08/31 06:04:32;;;;;;;9.50;4.00;;;;;;;21.77;70.52;99858.44;4261125;33;35158;-76
2022/08/31 06:07:18;;;;;;;10.73;4.15;;;;;;;21.50;73.12;99849.37;4272106;33;34257;-76
2022/08/31 06:10:06;;;;;;;11.12;4.78;;;;;;;21.79;71.97;99858.84;4271496;33;35974;-76
2022/08/31 06:12:52;;;;;;;7.78;4.00;;;;;;;22.29;68.51;99862.19;4271228;33;34722;-76
2022/08/31 06:15:40;;;;;;;8.10;3.95;;;;;;;22.23;66.91;99863.75;4272295;33;34631;-76
2022/08/31 06:18:28;;;;;;;7.30;3.83;;;;;;;22.76;66.31;99863.34;4272152;33;34718;-76
2022/08/31 06:21:21;;;;;;;8.27;3.80;;;;;;;22.53;66.68;99863.59;4271955;33;34632;-76
2022/08/31 06:24:09;;;;;;;6.18;3.70;;;;;;;22.80;65.58;99864.19;4272328;33;34317;-76
2022/08/31 06:26:58;;;;;;;6.70;3.75;;;;;;;22.93;64.09;99861.09;4272068;33;34965;-76
2022/08/31 06:29:45;;;;;;;10.32;4.40;;;;;;;23.02;62.64;99867.16;4251120;33;34613;-76
2022/08/31 06:32:32;;;;;;;10.85;4.37;;;;;;;23.05;63.42;99867.19;4260927;33;34709;-76
2022/08/31 06:35:18;;;;;;;5.75;3.28;;;;;;;22.55;63.86;99866.00;4272092;33;36309;-76
2022/08/31 06:38:07;;;;;;;5.97;2.90;;;;;;;22.87;60.22;99863.44;4261301;33;34824;-75
2022/08/31 06:40:54;;;;;;;5.00;3.35;;;;;;;23.40;59.25;99867.78;4271989;33;34526;-75
2022/08/31 06:43:42;;;;;;;6.28;3.40;;;;;;;23.74;57.08;99860.75;4271922;33;34946;-76
2022/08/31 06:46:31;;;;;;;9.43;3.20;;;;;;;23.84;54.59;99863.97;4259921;33;34887;-75
2022/08/31 06:49:18;;;;;;;5.60;3.45;;;;;;;24.08;53.59;99865.19;4260867;33;33945;-75
2022/08/31 06:52:04;;;;;;;6.12;2.53;;;;;;;23.42;55.24;99868.16;4247718;33;34558;-76
2022/08/31 06:54:50;;;;;;;6.75;3.50;;;;;;;23.59;53.77;99870.22;4250940;33;34938;-76
2022/08/31 06:57:38;;;;;;;7.62;3.47;;;;;;;23.74;52.62;99859.94;4260792;33;34986;-75
2022/08/31 07:00:26;;;;;;;8.48;3.45;;;;;;;23.00;53.40;99872.34;4260166;33;35160;-75
2022/08/31 07:03:22;;;;;;;6.85;3.42;;;;;;;23.42;53.63;99882.16;4271808;33;34195;-76
2022/08/31 07:06:16;;;;;;;6.35;3.12;;;;;;;24.04;51.87;99870.00;4271942;33;35077;-76
2022/08/31 07:09:04;;;;;;;6.18;3.30;;;;;;;24.32;51.76;99877.66;4271845;33;36278;-76
2022/08/31 07:11:51;;;;;;;6.05;2.92;;;;;;;24.01;52.12;99888.38;4271945;33;33934;-76
2022/08/31 07:14:37;;;;;;;8.25;3.72;;;;;;;24.20;50.39;99888.03;4260211;33;34309;-75
2022/08/31 07:17:24;;;;;;;6.45;3.25;;;;;;;24.44;49.23;99885.69;4260652;33;34894;-75
2022/08/31 07:20:11;;;;;;;5.50;3.40;;;;;;;23.70;52.78;99881.47;4271803;33;34391;-75
2022/08/31 07:22:57;;;;;;;6.62;3.28;;;;;;;23.86;52.26;99884.75;4271831;33;34056;-75
2022/08/31 07:25:44;;;;;;;6.45;3.62;;;;;;;24.28;51.18;99890.81;4271499;33;35292;-76
2022/08/31 07:28:32;;;;;;;7.78;3.45;;;;;;;24.37;52.75;99891.25;4271672;33;36095;-76
2022/08/31 07:31:22;;;;;;;7.45;3.90;;;;;;;24.22;53.10;99893.25;4271901;33;34705;-75
2022/08/31 07:34:09;;;;;;;7.55;3.92;;;;;;;24.60;51.44;99894.50;4260622;33;33688;-75
2022/08/31 07:43:11;;;;;;;10.23;3.85;;;;;;;24.61;49.53;99884.09;4271163;33;34914;-76
2022/08/31 07:45:58;;;;;;;6.20;3.55;;;;;;;25.06;49.86;99885.25;4272122;33;34462;-76
2022/08/31 07:48:44;;;;;;;8.40;4.00;;;;;;;24.05;51.96;99874.41;4260583;33;34627;-76
2022/08/31 07:51:30;;;;;;;6.35;3.90;;;;;;;24.99;50.63;99881.66;4260388;33;35926;-75
2022/08/31 07:54:20;;;;;;;9.25;3.80;;;;;;;23.79;52.21;99879.94;4272173;33;35291;-76
2022/08/31 07:57:06;;;;;;;6.25;3.40;;;;;;;24.21;51.98;99872.03;4260490;33;35161;-75
2022/08/31 07:59:57;;;;;;;9.25;3.10;;;;;;;24.42;50.86;99871.28;4271450;33;35317;-76
2022/08/31 08:02:45;;;;;;;5.07;3.45;;;;;;;24.75;49.47;99872.06;4261559;33;34917;-75
2022/08/31 08:05:40;;;;;;;6.30;3.35;;;;;;;25.26;49.15;99880.03;4271381;33;34227;-76
2022/08/31 08:08:26;;;;;;;9.27;4.15;;;;;;;25.28;48.18;99865.59;4272189;33;34135;-76
2022/08/31 08:11:19;;;;;;;8.35;3.78;;;;;;;25.71;47.82;99871.84;4271880;33;34649;-77
2022/08/31 08:14:10;;;;;;;7.00;3.45;;;;;;;25.48;47.53;99869.53;4259321;33;34870;-76
2022/08/31 08:16:57;;;;;;;7.37;3.03;;;;;;;24.83;47.35;99860.47;4272357;33;34254;-76
2022/08/31 08:19:45;;;;;;;10.45;3.62;;;;;;;24.73;48.83;99864.06;4272026;33;33930;-77
2022/08/31 08:22:31;;;;;;;7.87;3.70;;;;;;;25.66;46.38;99866.66;4271885;33;35774;-76
2022/08/31 08:25:38;;;;;;;5.18;3.20;;;;;;;26.28;41.79;99865.09;4261202;33;34650;-76
2022/08/31 08:28:26;;;;;;;6.82;3.53;;;;;;;25.86;43.42;99861.34;4271520;33;34703;-76
2022/08/31 08:31:28;;;;;;;8.10;3.30;;;;;;;26.14;43.23;99859.59;4263011;33;35105;-76
2022/08/31 08:34:14;;;;;;;5.30;3.60;;;;;;;26.66;43.31;99856.78;4271889;33;35583;-76
2022/08/31 08:37:01;;;;;;;9.40;3.30;;;;;;;26.42;43.00;99859.38;4271493;33;34754;-76
2022/08/31 08:39:48;;;;;;;5.35;3.20;;;;;;;26.24;42.46;99858.69;4260559;33;35405;-76
2022/08/31 08:42:34;;;;;;;5.87;3.28;;;;;;;26.21;42.28;99853.91;4268739;33;92292;-75
2022/08/31 08:45:21;;;;;;;6.95;3.97;;;;;;;26.57;41.99;99860.09;4260735;33;34592;-76
2022/08/31 08:48:10;;;;;;;6.80;3.50;;;;;;;26.46;40.52;99853.72;4271374;33;34605;-76
2022/08/31 08:50:58;;;;;;;6.05;3.65;;;;;;;26.98;40.00;99856.50;4260735;33;35508;-76
2022/08/31 08:53:47;;;;;;;6.55;3.12;;;;;;;27.36;39.39;99854.47;4260518;33;34283;-76
2022/08/31 08:56:40;;;;;;;5.87;3.62;;;;;;;27.59;38.61;99842.53;4260026;33;34737;-77
2022/08/31 08:59:27;;;;;;;;;;;;;;;26.80;40.35;99844.62;4271226;33;35070;-78
2022/08/31 09:02:19;;;;;;;5.12;3.37;;;;;;;27.33;39.88;99844.06;4260640;33;34632;-76
2022/08/31 09:05:11;;;;;;;5.03;3.50;;;;;;;27.23;39.94;99844.97;4260592;33;35183;-77
2022/08/31 09:08:16;;;;;;;7.03;3.58;;;;;;;27.90;38.93;99836.91;4270378;33;34432;-77
2022/08/31 09:11:37;;;;;;;7.95;3.58;;;;;;;27.79;38.99;99837.06;4269358;33;35044;-76
2022/08/31 09:15:10;;;;;;;9.73;3.83;;;;;;;27.62;38.21;99826.81;4270260;33;34712;-77
2022/08/31 09:18:02;;;;;;;6.03;3.22;;;;;;;27.52;37.05;99831.38;4253267;33;34832;-77
2022/08/31 09:21:06;;;;;;;6.70;4.32;;;;;;;28.53;35.70;99824.28;4270939;33;34291;-77
2022/08/31 09:24:10;;;;;;;8.98;4.03;;;;;;;28.51;36.07;99829.56;4259680;33;34906;-76
2022/08/31 09:27:10;;;;;;;6.97;3.55;;;;;;;27.13;38.96;99827.00;4270968;33;34637;-76
2022/08/31 09:29:59;;;;;;;6.00;3.37;;;;;;;27.55;38.84;99815.66;4259956;33;34246;-77
2022/08/31 09:32:55;;;;;;;7.43;3.75;;;;;;;28.19;37.05;99808.31;4270147;33;34706;-76
2022/08/31 09:35:42;;;;;;;4.75;3.33;;;;;;;28.62;35.96;99814.03;4270147;33;35060;-76
2022/08/31 09:38:38;;;;;;;4.97;3.37;;;;;;;28.16;36.15;99804.34;4270844;33;34707;-77
2022/08/31 09:41:27;;;;;;;6.85;3.00;;;;;;;28.60;35.59;99802.41;4270535;33;34295;-77
2022/08/31 09:44:28;;;;;;;7.32;3.33;;;;;;;29.33;34.35;99799.81;4270907;33;35316;-77
2022/08/31 09:47:36;;;;;;;6.70;3.40;;;;;;;29.36;34.05;99799.72;4259173;33;34683;-76
2022/08/31 09:50:46;;;;;;;7.57;3.65;;;;;;;27.96;34.83;99801.44;4259796;33;35406;-77
2022/08/31 09:56:54;;;;;;;5.37;2.90;;;;;;;29.92;32.24;99806.62;4261188;33;34594;-77
2022/08/31 09:59:46;;;;;;;6.07;3.42;;;;;;;28.70;33.18;99790.13;4269809;33;35978;-77
2022/08/31 10:02:36;;;;;;;6.40;3.60;;;;;;;29.71;32.12;99793.78;4259706;33;34263;-77
2022/08/31 10:05:30;;;;;;;5.22;3.97;;;;;;;29.24;32.20;99783.47;4259130;33;34301;-78
2022/08/31 10:08:45;;;;;;;5.35;3.75;;;;;;;29.99;31.34;99789.50;4269796;33;34656;-77
2022/08/31 10:11:31;;;;;;;5.30;3.25;;;;;;;30.05;31.95;99782.06;4258815;33;36062;-77
2022/08/31 10:14:37;;;;;;;5.50;3.70;;;;;;;30.52;31.71;99776.06;4258858;33;35457;-77
2022/08/31 10:17:31;;;;;;;8.32;3.30;;;;;;;30.32;34.89;99773.37;4259430;33;34581;-77
2022/08/31 10:20:20;;;;;;;6.87;3.45;;;;;;;30.74;30.85;99775.47;4248781;33;34691;-77
2022/08/31 10:23:26;;;;;;;6.90;3.47;;;;;;;31.08;30.48;99769.31;4251218;33;34924;-77
2022/08/31 10:26:18;;;;;;;5.72;3.40;;;;;;;31.67;29.38;99761.50;4272122;33;34715;-77
2022/08/31 10:29:34;;;;;;;6.65;3.78;;;;;;;32.04;29.06;99757.87;4261001;33;35045;-77
2022/08/31 10:32:28;;;;;;;7.53;3.50;;;;;;;29.28;31.64;99755.19;4251176;33;34669;-77
2022/08/31 10:35:21;;;;;;;5.18;3.28;;;;;;;29.12;31.92;99745.44;4271416;33;36077;-76
2022/08/31 10:38:39;;;;;;;8.50;3.67;;;;;;;30.63;31.41;99747.53;4271858;33;35078;-77
2022/08/31 10:41:29;;;;;;;5.12;3.40;;;;;;;31.00;30.82;99746.09;4261130;33;34402;-76
2022/08/31 10:44:25;;;;;;;5.50;3.30;;;;;;;29.24;31.74;99740.34;4260900;33;34709;-77
2022/08/31 10:47:11;;;;;;;6.30;3.33;;;;;;;30.21;31.34;99747.38;4261480;33;35960;-77
2022/08/31 10:50:25;;;;;;;4.53;3.25;;;;;;;30.28;29.91;99741.56;4272182;33;34827;-76
2022/08/31 10:53:45;;;;;;;6.43;3.50;;;;;;;29.79;31.14;99742.34;4261229;33;34242;-77
2022/08/31 10:56:40;;;;;;;5.65;3.55;;;;;;;29.31;31.03;99743.81;4272461;33;35628;-77
2022/08/31 10:59:51;;;;;;;5.85;3.30;;;;;;;27.49;34.87;99725.31;4272244;33;35070;-77
2022/08/31 11:03:14;;;;;;;6.05;3.47;;;;;;;29.74;33.39;99728.75;4271442;33;34597;-76
2022/08/31 11:06:22;;;;;;;7.40;3.30;;;;;;;30.46;30.91;99738.28;4260672;33;35168;-76
2022/08/31 11:09:32;;;;;;;9.63;3.42;;;;;;;31.12;30.34;99728.34;4251265;33;34567;-77
2022/08/31 11:12:29;;;;;;;5.28;3.58;;;;;;;30.06;30.40;99730.00;4261279;33;34824;-77
2022/08/31 11:15:42;;;;;;;5.47;3.95;;;;;;;31.14;29.25;99719.41;4272191;33;34679;-77
2022/08/31 11:18:59;;;;;;;7.47;3.72;;;;;;;31.42;30.67;99709.31;4272114;33;34805;-76
2022/08/31 11:21:57;;;;;;;4.45;3.37;;;;;;;30.56;29.13;99713.78;4271819;33;34689;-76
2022/08/31 11:25:13;;;;;;;5.57;3.55;;;;;;;30.76;29.21;99702.31;4261310;33;34756;-77
2022/08/31 11:28:32;;;;;;;5.60;3.70;;;;;;;30.95;28.22;99700.59;4261360;33;35552;-77
2022/08/31 11:31:26;;;;;;;8.75;3.67;;;;;;;31.31;29.00;99703.94;4261294;33;34135;-77
2022/08/31 11:34:24;;;;;;;4.70;3.70;;;;;;;32.17;28.80;99695.50;4271802;33;33619;-77
2022/08/31 11:37:12;;;;;;;4.37;3.20;;;;;;;32.67;27.27;99698.63;4250934;33;34919;-77
2022/08/31 11:40:09;;;;;;;7.28;3.33;;;;;;;33.98;25.69;99693.94;4271618;33;35338;-77
2022/08/31 11:42:59;;;;;;;6.07;3.42;;;;;;;33.99;25.73;99696.31;4261082;33;33157;-77
2022/08/31 11:45:46;;;;;;;6.40;3.50;;;;;;;33.87;24.77;99687.91;4260402;33;34682;-77
2022/08/31 11:48:52;;;;;;;4.32;3.37;;;;;;;33.80;26.13;99689.81;4272118;33;36069;-77
2022/08/31 11:51:43;;;;;;;5.57;3.12;;;;;;;34.83;24.07;99683.72;4272288;33;34696;-77
2022/08/31 11:54:36;;;;;;;7.55;3.47;;;;;;;33.68;24.65;99687.87;4271072;33;35002;-78
2022/08/31 11:57:25;;;;;;;7.37;3.67;;;;;;;34.73;24.94;99682.19;4271834;33;35666;-77
2022/08/31 12:00:19;;;;;;;5.75;3.75;;;;;;;35.01;24.48;99677.22;4261154;33;35140;-77
2022/08/31 12:03:08;;;;;;;5.50;3.40;;;;;;;35.31;23.20;99677.47;4271321;33;34764;-77
2022/08/31 12:05:56;;;;;;;4.75;3.45;;;;;;;34.87;23.77;99678.69;4250920;33;33879;-77
2022/08/31 12:08:51;;;;;;;6.35;3.35;;;;;;;35.55;23.13;99680.37;4271480;33;35023;-78
2022/08/31 12:11:48;;;;;;;6.28;3.50;;;;;;;35.24;24.07;99678.59;4271764;33;35056;-77
2022/08/31 12:14:55;;;;;;;7.70;3.85;;;;;;;32.10;26.08;99684.41;4271099;33;35632;-77
2022/08/31 12:17:56;;;;;;;5.20;3.53;;;;;;;33.46;26.04;99676.56;4260849;33;33635;-77
2022/08/31 12:24:24;;;;;;;4.93;3.12;;;;;;;30.74;27.87;99671.66;4262557;33;35679;-77
2022/08/31 12:27:17;;;;;;;8.45;3.90;;;;;;;33.09;26.30;99664.25;4260836;33;34722;-77
2022/08/31 12:30:15;;;;;;;5.18;3.67;;;;;;;32.50;26.48;99661.16;4267489;33;35166;-78
2022/08/31 12:33:07;;;;;;;6.70;3.67;;;;;;;32.51;26.02;99659.94;4271676;33;34632;-77
2022/08/31 12:36:16;;;;;;;6.62;3.58;;;;;;;33.00;26.40;99665.00;4267890;33;35118;-77
2022/08/31 12:39:06;;;;;;;7.03;3.55;;;;;;;33.96;23.93;99663.16;4259151;33;34565;-77
2022/08/31 12:42:02;;;;;;;5.78;3.47;;;;;;;33.72;24.06;99662.16;4270765;33;34442;-77
2022/08/31 12:44:50;;;;;;;6.35;3.75;;;;;;;33.86;24.14;99650.19;4259473;33;34238;-78
2022/08/31 12:48:10;;;;;;;5.05;3.65;;;;;;;33.65;25.21;99653.94;4260289;33;34941;-77
2022/08/31 12:51:30;;;;;;;5.20;3.25;;;;;;;31.30;27.50;99647.75;4257957;33;34225;-78
2022/08/31 12:54:32;;;;;;;4.55;3.20;;;;;;;32.34;28.04;99647.16;4269438;33;34136;-78
2022/08/31 12:57:47;;;;;;;4.72;3.87;;;;;;;33.14;26.21;99646.62;4259017;33;35155;-78
2022/08/31 13:00:38;;;;;;;6.00;3.62;;;;;;;32.95;26.27;99633.56;4255874;33;35892;-78
2022/08/31 13:03:28;;;;;;;7.22;3.83;;;;;;;32.96;26.39;99632.28;4256187;33;34581;-78
2022/08/31 13:06:29;;;;;;;6.62;3.25;;;;;;;32.81;28.17;99632.84;4259616;33;34678;-77
2022/08/31 13:09:34;;;;;;;7.93;3.90;;;;;;;32.42;28.16;99635.09;4269829;33;34682;-77
2022/08/31 13:12:23;;;;;;;4.07;3.37;;;;;;;32.79;26.48;99643.06;4268421;33;34534;-76
2022/08/31 13:15:20;;;;;;;5.32;3.90;;;;;;;33.61;25.42;99639.06;4270343;33;35420;-78
2022/08/31 13:18:13;;;;;;;5.30;3.10;;;;;;;32.20;27.07;99632.25;4257016;33;33856;-79
2022/08/31 13:21:04;;;;;;;5.93;3.65;;;;;;;32.98;26.06;99638.31;4259183;33;35632;-78
2022/08/31 13:23:50;;;;;;;7.47;3.60;;;;;;;33.37;27.43;99639.62;4258758;33;35962;-78
2022/08/31 13:26:37;;;;;;;7.28;4.00;;;;;;;33.59;26.74;99631.81;4260534;33;35515;-80
2022/08/31 13:29:23;;;;;;;5.32;3.50;;;;;;;33.83;25.64;99631.25;4270822;33;33039;-77
2022/08/31 13:32:31;;;;;;;6.62;3.40;;;;;;;34.61;24.17;99626.22;4270289;33;34694;-78
2022/08/31 13:35:19;;;;;;;4.60;3.25;;;;;;;35.05;24.13;99620.94;4269197;33;35247;-78
2022/08/31 13:38:07;;;;;;;4.43;3.35;;;;;;;35.19;21.80;99619.44;4259365;33;35907;-78
2022/08/31 13:40:54;;;;;;;6.12;3.37;;;;;;;34.38;24.28;99625.63;4267273;33;34032;-79
2022/08/31 13:43:46;;;;;;;5.78;3.78;;;;;;;34.41;25.12;99618.16;4255957;33;34647;-79
2022/08/31 13:46:37;;;;;;;8.43;3.62;;;;;;;33.16;25.18;99618.56;4259320;33;34700;-78